createdAt,value
2018-07-02T00:01:21.421Z,1.10
2018-07-02T00:03:50.608Z,1.30
2018-07-02T00:06:45.463Z,1.20
2018-07-02T00:09:14.609Z,1.10
2018-07-02T00:11:43.796Z,1.30
2018-07-02T00:14:12.948Z,1.30
2018-07-02T00:16:42.077Z,1.30
2018-07-02T00:19:11.265Z,1.30
2018-07-02T00:21:40.652Z,1.10
2018-07-02T00:24:09.873Z,1.32
2018-07-02T00:26:39.061Z,1.20
2018-07-02T00:29:08.297Z,1.40
2018-07-02T00:31:37.484Z,1.20
2018-07-02T00:34:06.596Z,1.20
2018-07-02T00:36:36.400Z,1.15
2018-07-02T00:39:09.390Z,1.10
2018-07-02T00:41:39.404Z,1.22
2018-07-02T00:44:08.500Z,1.40
2018-07-02T00:46:37.692Z,1.27
2018-07-02T00:49:07.501Z,1.30
2018-07-02T00:51:37.728Z,1.50
2018-07-02T00:54:06.833Z,1.27
2018-07-02T00:56:36.062Z,1.52
2018-07-02T00:59:05.333Z,1.30
2018-07-02T01:01:34.521Z,1.30
2018-07-02T01:04:03.649Z,1.30
2018-07-02T01:06:32.784Z,1.40
2018-07-02T01:09:01.973Z,1.52
2018-07-02T01:11:31.713Z,1.45
2018-07-02T01:14:00.800Z,1.30
2018-07-02T01:16:29.897Z,1.10
2018-07-02T01:18:59.008Z,1.30
2018-07-02T01:21:28.196Z,1.40
2018-07-02T01:23:57.277Z,1.30
2018-07-02T01:26:26.689Z,1.40
2018-07-02T01:28:56.574Z,1.30
2018-07-02T01:31:25.676Z,1.35
2018-07-02T01:33:55.417Z,1.20
2018-07-02T01:36:25.244Z,1.20
2018-07-02T01:38:55.060Z,1.32
2018-07-02T01:41:24.148Z,1.52
2018-07-02T01:43:53.725Z,1.15
2018-07-02T01:46:22.879Z,1.40
2018-07-02T01:48:52.118Z,1.37
2018-07-02T01:52:51.267Z,1.22
2018-07-02T01:55:20.381Z,1.55
2018-07-02T01:57:49.568Z,1.30
2018-07-02T02:00:18.958Z,1.42
2018-07-02T02:02:49.089Z,1.42
2018-07-02T02:05:18.205Z,1.25
2018-07-02T02:07:47.544Z,1.32
2018-07-02T02:10:16.672Z,1.20
2018-07-02T02:12:45.841Z,1.40
2018-07-02T02:15:15.152Z,1.40
2018-07-02T02:17:44.301Z,1.10
2018-07-02T02:20:13.482Z,1.20
2018-07-02T02:22:42.845Z,1.30
2018-07-02T02:25:13.277Z,1.30
2018-07-02T02:27:42.404Z,1.30
2018-07-02T02:30:11.574Z,1.10
2018-07-02T02:32:41.698Z,1.22
2018-07-02T02:35:12.019Z,1.37
2018-07-02T02:37:41.705Z,1.32
2018-07-02T02:40:10.843Z,1.20
2018-07-02T02:42:39.944Z,1.40
2018-07-02T02:45:09.092Z,1.12
2018-07-02T02:47:38.712Z,1.10
2018-07-02T02:50:07.757Z,1.15
2018-07-02T02:52:36.924Z,1.30
2018-07-02T02:55:06.325Z,1.20
2018-07-02T02:57:35.417Z,1.10
2018-07-02T03:00:05.425Z,1.22
2018-07-02T03:02:34.753Z,1.12
2018-07-02T03:05:03.961Z,1.40
2018-07-02T03:07:33.080Z,1.20
2018-07-02T03:10:02.565Z,1.30
2018-07-02T03:12:31.915Z,1.40
2018-07-02T03:15:01.020Z,1.27
2018-07-02T03:17:30.221Z,1.30
2018-07-02T03:19:59.317Z,1.10
2018-07-02T03:22:28.433Z,1.10
2018-07-02T03:24:57.853Z,1.20
2018-07-02T03:27:27.152Z,1.07
2018-07-02T03:29:56.305Z,1.20
2018-07-02T03:39:11.216Z,1.27
2018-07-02T03:41:40.360Z,1.20
2018-07-02T03:44:09.505Z,1.10
2018-07-02T03:46:39.116Z,1.07
2018-07-02T03:49:08.412Z,1.35
2018-07-02T03:51:37.540Z,1.25
2018-07-02T03:54:06.872Z,1.22
2018-07-02T03:56:35.969Z,1.27
2018-07-02T03:59:05.140Z,1.22
2018-07-02T04:01:34.476Z,1.10
2018-07-02T04:04:04.580Z,1.10
2018-07-02T04:06:35.405Z,1.10
2018-07-02T04:09:09.037Z,1.27
2018-07-02T04:11:38.433Z,1.20
2018-07-02T04:14:07.749Z,1.63
2018-07-02T04:16:36.993Z,1.25
2018-07-02T04:19:10.060Z,1.20
2018-07-02T04:21:40.908Z,1.35
2018-07-02T04:24:10.715Z,1.35
2018-07-02T04:26:41.640Z,1.30
2018-07-02T04:29:11.224Z,1.30
2018-07-02T04:31:40.280Z,1.60
2018-07-02T04:34:09.692Z,1.40
2018-07-02T04:36:38.802Z,1.30
2018-07-02T04:39:09.233Z,1.20
2018-07-02T04:41:38.687Z,1.20
2018-07-02T04:44:08.316Z,1.20
2018-07-02T04:46:37.600Z,1.27
2018-07-02T04:49:06.853Z,1.12
2018-07-02T04:51:36.397Z,1.00
2018-07-02T04:54:05.497Z,1.10
2018-07-02T04:56:34.683Z,0.98
2018-07-02T04:59:04.448Z,1.25
2018-07-02T05:01:33.553Z,1.27
2018-07-02T05:04:03.232Z,1.12
2018-07-02T05:06:32.403Z,1.20
2018-07-02T05:09:01.772Z,1.10
2018-07-02T05:11:31.336Z,1.10
2018-07-02T05:14:01.042Z,1.05
2018-07-02T05:16:30.232Z,1.25
2018-07-02T05:18:59.397Z,1.00
2018-07-02T05:21:28.520Z,1.20
2018-07-02T05:23:57.637Z,1.10
2018-07-02T05:26:27.077Z,1.07
2018-07-02T05:28:56.420Z,1.10
2018-07-02T05:31:25.594Z,1.12
2018-07-02T05:33:54.912Z,1.25
2018-07-02T05:36:24.016Z,0.95
2018-07-02T05:38:53.160Z,0.90
2018-07-02T05:41:22.532Z,1.10
2018-07-02T05:43:51.638Z,0.75
2018-07-02T05:46:21.032Z,0.90
2018-07-02T05:48:50.365Z,1.17
2018-07-02T05:51:19.491Z,1.05
2018-07-02T05:53:48.871Z,1.10
2018-07-02T05:56:18.832Z,1.00
2018-07-02T05:58:47.936Z,1.12
2018-07-02T06:01:17.022Z,0.90
2018-07-02T06:03:46.769Z,0.88
2018-07-02T06:06:16.380Z,1.00
2018-07-02T06:08:45.529Z,0.90
2018-07-02T06:11:14.932Z,0.90
2018-07-02T06:13:44.046Z,1.07
2018-07-02T06:16:13.169Z,1.15
2018-07-02T06:18:42.528Z,1.00
2018-07-02T06:21:12.995Z,1.20
2018-07-02T06:23:42.172Z,1.02
2018-07-02T06:26:11.298Z,1.00
2018-07-02T06:28:40.731Z,1.10
2018-07-02T06:31:09.941Z,1.00
2018-07-02T06:33:39.099Z,1.10
2018-07-02T06:36:08.173Z,0.98
2018-07-02T06:38:38.210Z,0.93
2018-07-02T06:41:07.376Z,0.98
2018-07-02T06:43:37.082Z,0.95
2018-07-02T06:46:07.645Z,1.10
2018-07-02T06:48:37.031Z,1.17
2018-07-02T06:51:06.338Z,0.90
2018-07-02T06:53:35.688Z,0.90
2018-07-02T06:56:04.925Z,0.90
2018-07-02T06:58:35.045Z,1.00
2018-07-02T07:01:04.240Z,1.05
2018-07-02T07:03:33.421Z,1.00
2018-07-02T07:06:02.584Z,0.80
2018-07-02T07:08:31.766Z,1.00
2018-07-02T07:11:01.025Z,1.10
2018-07-02T07:13:30.324Z,0.80
2018-07-02T07:16:00.461Z,0.90
2018-07-02T07:18:29.757Z,0.80
2018-07-02T07:20:58.848Z,1.05
2018-07-02T07:23:28.284Z,0.95
2018-07-02T07:25:59.093Z,1.00
2018-07-02T07:28:29.102Z,0.90
2018-07-02T07:30:58.208Z,1.10
2018-07-02T07:33:28.270Z,0.90
2018-07-02T07:35:58.325Z,1.00
2018-07-02T07:38:28.724Z,0.90
2018-07-02T07:40:57.920Z,0.95
2018-07-02T07:43:27.082Z,1.10
2018-07-02T07:45:56.277Z,0.95
2018-07-02T07:48:26.228Z,1.00
2018-07-02T07:50:55.365Z,0.90
2018-07-02T07:53:24.471Z,0.95
2018-07-02T07:55:53.690Z,0.88
2018-07-02T07:58:22.832Z,0.72
2018-07-02T08:00:52.799Z,0.78
2018-07-02T08:03:21.947Z,0.90
2018-07-02T08:05:51.082Z,0.90
2018-07-02T08:08:20.806Z,0.90
2018-07-02T08:10:50.181Z,0.90
2018-07-02T08:14:48.940Z,0.82
2018-07-02T08:17:18.253Z,0.98
2018-07-02T08:19:47.439Z,1.00
2018-07-02T08:22:17.712Z,0.90
2018-07-02T08:24:47.527Z,0.72
2018-07-02T08:27:17.676Z,1.00
2018-07-02T08:29:46.856Z,0.90
2018-07-02T08:32:16.904Z,0.98
2018-07-02T08:34:47.043Z,1.42
2018-07-02T08:37:17.213Z,0.70
2018-07-02T08:39:46.644Z,1.25
2018-07-02T08:42:16.057Z,1.02
2018-07-02T08:44:45.237Z,0.85
2018-07-02T08:47:14.473Z,0.90
2018-07-02T08:49:44.803Z,1.10
2018-07-02T08:52:14.012Z,0.93
2018-07-02T08:54:44.961Z,0.93
2018-07-02T08:57:14.210Z,1.07
2018-07-02T08:59:44.137Z,0.90
2018-07-02T09:02:14.745Z,1.00
2018-07-02T09:04:47.693Z,1.22
2018-07-02T09:07:17.805Z,1.10
2018-07-02T09:09:50.120Z,1.00
2018-07-02T09:12:21.132Z,0.90
2018-07-02T09:14:50.596Z,1.02
2018-07-02T09:17:19.739Z,0.98
2018-07-02T09:19:50.712Z,0.90
2018-07-02T09:22:20.121Z,1.00
2018-07-02T09:24:50.258Z,1.00
2018-07-02T09:27:19.430Z,0.95
2018-07-02T09:29:49.749Z,1.00
2018-07-02T09:32:19.017Z,1.02
2018-07-02T09:34:48.157Z,0.90
2018-07-02T09:37:17.509Z,0.95
2018-07-02T09:39:47.269Z,0.75
2018-07-02T09:42:16.341Z,0.80
2018-07-02T09:44:47.097Z,0.80
2018-07-02T09:47:16.228Z,1.00
2018-07-02T09:49:45.309Z,1.10
2018-07-02T09:52:14.664Z,1.00
2018-07-02T09:54:44.740Z,0.80
2018-07-02T09:57:13.775Z,0.90
2018-07-02T09:59:44.721Z,0.85
2018-07-02T10:02:15.392Z,1.00
2018-07-02T10:04:45.212Z,1.00
2018-07-02T10:07:14.791Z,0.93
2018-07-02T10:09:44.005Z,0.80
2018-07-02T10:12:13.969Z,0.93
2018-07-02T10:14:43.899Z,0.90
2018-07-02T10:17:14.093Z,0.90
2018-07-02T10:19:44.048Z,0.70
2018-07-02T10:22:13.178Z,0.82
2018-07-02T10:24:43.141Z,0.80
2018-07-02T10:27:13.045Z,0.95
2018-07-02T10:29:42.886Z,0.95
2018-07-02T10:32:12.797Z,0.90
2018-07-02T10:34:42.785Z,1.00
2018-07-02T10:37:11.853Z,0.90
2018-07-02T10:39:41.852Z,0.72
2018-07-02T10:42:11.224Z,1.00
2018-07-02T10:44:41.060Z,0.80
2018-07-02T10:47:11.911Z,1.00
2018-07-02T10:49:42.720Z,1.00
2018-07-02T10:52:12.550Z,0.90
2018-07-02T10:54:42.205Z,1.07
2018-07-02T10:57:12.150Z,1.00
2018-07-02T10:59:41.281Z,0.90
2018-07-02T11:02:11.089Z,0.95
2018-07-02T11:04:40.185Z,1.05
2018-07-02T11:07:09.376Z,1.05
2018-07-02T11:16:23.392Z,0.70
2018-07-02T11:18:52.565Z,1.20
2018-07-02T11:21:21.664Z,1.00
2018-07-02T11:23:50.805Z,1.65
2018-07-02T11:26:19.952Z,1.17
2018-07-02T11:28:49.132Z,0.98
2018-07-02T11:31:18.248Z,0.98
2018-07-02T11:33:47.964Z,0.98
2018-07-02T11:36:17.311Z,0.90
2018-07-02T11:38:46.562Z,0.80
2018-07-02T11:41:15.761Z,1.00
2018-07-02T11:43:44.938Z,0.95
2018-07-02T11:46:14.476Z,1.05
2018-07-02T11:48:43.677Z,0.98
2018-07-02T11:51:15.440Z,1.07
2018-07-02T11:53:44.992Z,0.98
2018-07-02T11:56:14.632Z,1.00
2018-07-02T11:58:44.103Z,0.90
2018-07-02T12:01:14.022Z,0.90
2018-07-02T12:03:43.288Z,1.05
2018-07-02T12:06:12.512Z,1.00
2018-07-02T12:08:41.669Z,1.22
2018-07-02T12:11:11.008Z,0.93
2018-07-02T12:13:40.629Z,0.98
2018-07-02T12:16:10.527Z,0.90
2018-07-02T12:18:39.648Z,1.00
2018-07-02T12:21:09.389Z,0.90
2018-07-02T12:23:39.001Z,0.90
2018-07-02T12:26:09.318Z,1.10
2018-07-02T12:28:38.416Z,1.00
2018-07-02T12:31:07.487Z,1.00
2018-07-02T12:33:36.625Z,1.00
2018-07-02T12:36:06.857Z,1.00
2018-07-02T12:38:36.894Z,1.05
2018-07-02T12:41:07.063Z,1.00
2018-07-02T12:43:38.673Z,0.82
2018-07-02T12:46:09.216Z,1.00
2018-07-02T12:48:40.356Z,0.98
2018-07-02T12:51:10.565Z,1.00
2018-07-02T12:53:40.237Z,1.10
2018-07-02T12:56:09.334Z,0.93
2018-07-02T12:58:39.429Z,1.00
2018-07-02T13:01:08.568Z,1.20
2018-07-02T13:03:37.709Z,1.20
2018-07-02T13:06:07.351Z,0.93
2018-07-02T13:08:36.556Z,0.90
2018-07-02T13:11:05.718Z,0.90
2018-07-02T13:13:35.895Z,1.07
2018-07-02T13:16:05.547Z,1.00
2018-07-02T13:18:35.282Z,1.30
2018-07-02T13:21:04.500Z,0.95
2018-07-02T13:23:34.517Z,1.30
2018-07-02T13:26:03.653Z,0.90
2018-07-02T13:28:32.814Z,0.90
2018-07-02T13:31:02.219Z,0.90
2018-07-02T13:33:31.306Z,1.20
2018-07-02T13:36:00.674Z,1.00
2018-07-02T13:38:30.409Z,1.10
2018-07-02T13:40:59.717Z,1.02
2018-07-02T13:43:29.139Z,0.93
2018-07-02T13:45:58.270Z,1.10
2018-07-02T13:48:27.357Z,1.10
2018-07-02T13:50:56.925Z,1.10
2018-07-02T13:53:26.179Z,1.00
2018-07-02T13:55:56.139Z,1.10
2018-07-02T13:58:26.256Z,1.10
2018-07-02T14:00:56.244Z,0.90
2018-07-02T14:03:25.507Z,0.90
2018-07-02T14:05:55.307Z,1.10
2018-07-02T14:08:24.725Z,1.00
2018-07-02T14:10:53.922Z,1.17
2018-07-02T14:13:23.057Z,0.90
2018-07-02T14:15:52.545Z,1.00
2018-07-02T14:18:22.005Z,1.15
2018-07-02T14:20:52.213Z,1.12
2018-07-02T14:23:22.835Z,1.20
2018-07-02T14:25:52.236Z,1.02
2018-07-02T14:28:22.277Z,1.25
2018-07-02T14:30:52.742Z,1.00
2018-07-02T14:33:22.041Z,1.10
2018-07-02T14:35:52.291Z,1.12
2018-07-02T14:38:21.489Z,0.80
2018-07-02T14:40:52.036Z,1.30
2018-07-02T14:43:22.634Z,1.05
2018-07-02T14:45:52.123Z,1.17
2018-07-02T14:48:23.570Z,1.00
2018-07-02T14:50:52.823Z,1.10
2018-07-02T14:53:23.670Z,1.15
2018-07-02T14:56:03.452Z,0.90
2018-07-02T14:58:32.923Z,1.02
2018-07-02T15:01:04.251Z,1.10
2018-07-02T15:03:34.495Z,1.05
2018-07-02T15:06:04.931Z,0.90
2018-07-02T15:08:35.037Z,1.00
2018-07-02T15:11:06.373Z,1.00
2018-07-02T15:13:36.980Z,1.00
2018-07-02T15:16:08.138Z,1.00
2018-07-02T15:18:39.652Z,0.88
2018-07-02T15:21:09.177Z,1.42
2018-07-02T15:23:38.458Z,1.00
2018-07-02T15:26:07.630Z,1.00
2018-07-02T15:28:37.474Z,0.95
2018-07-02T15:31:08.565Z,1.12
2018-07-02T15:33:37.693Z,1.00
2018-07-02T15:36:08.123Z,1.30
2018-07-02T15:38:37.292Z,1.00
2018-07-02T15:41:06.484Z,1.25
2018-07-02T15:43:36.657Z,1.30
2018-07-02T15:46:05.813Z,1.00
2018-07-02T15:48:34.876Z,0.93
2018-07-02T15:51:05.228Z,0.95
2018-07-02T15:53:35.309Z,0.90
2018-07-02T15:56:04.405Z,0.98
2018-07-02T15:58:33.570Z,1.00
2018-07-02T16:01:04.040Z,1.10
2018-07-02T16:03:34.856Z,1.20
2018-07-02T16:06:04.006Z,0.98
2018-07-02T16:08:33.222Z,1.10
2018-07-02T16:11:02.461Z,1.07
2018-07-02T16:13:33.512Z,0.90
2018-07-02T16:16:04.550Z,0.90
2018-07-02T16:18:34.314Z,1.40
2018-07-02T16:21:04.920Z,1.00
2018-07-02T16:23:34.026Z,1.15
2018-07-02T16:26:03.169Z,0.90
2018-07-02T16:28:33.241Z,1.00
2018-07-02T16:31:02.441Z,0.90
2018-07-02T16:33:31.807Z,1.22
2018-07-02T16:36:01.909Z,1.10
2018-07-02T16:38:31.313Z,1.00
2018-07-02T16:41:01.784Z,1.12
2018-07-02T16:43:30.964Z,0.90
2018-07-02T16:46:00.089Z,1.00
2018-07-02T16:48:29.461Z,1.10
2018-07-02T16:50:59.057Z,1.00
2018-07-02T16:53:28.181Z,0.98
2018-07-02T16:55:57.557Z,1.00
2018-07-02T16:58:26.694Z,1.55
2018-07-02T17:00:56.036Z,1.30
2018-07-02T17:03:25.364Z,1.25
2018-07-02T17:05:54.460Z,1.15
2018-07-02T17:08:23.589Z,1.12
2018-07-02T17:10:52.972Z,1.50
2018-07-02T17:13:22.133Z,1.80
2018-07-02T17:15:51.273Z,1.67
2018-07-02T17:18:21.376Z,1.60
2018-07-02T17:20:50.496Z,1.80
2018-07-02T17:23:21.294Z,1.87
2018-07-02T17:25:50.428Z,1.85
2018-07-02T17:28:19.520Z,2.33
2018-07-02T17:30:48.889Z,2.40
2018-07-02T17:33:17.994Z,2.27
2018-07-02T17:35:47.185Z,2.42
2018-07-02T17:38:16.573Z,2.67
2018-07-02T17:40:45.697Z,2.67
2018-07-02T17:43:14.776Z,3.05
2018-07-02T17:45:44.073Z,2.60
2018-07-02T17:48:13.245Z,3.35
2018-07-02T17:50:42.413Z,2.58
2018-07-02T17:53:11.485Z,2.90
2018-07-02T17:55:41.188Z,2.40
2018-07-02T17:58:10.265Z,2.30
2018-07-02T18:00:39.408Z,2.65
2018-07-02T18:03:08.504Z,2.65
2018-07-02T18:05:37.658Z,2.42
2018-07-02T18:08:07.156Z,2.20
2018-07-02T18:10:36.296Z,2.20
2018-07-02T18:13:05.732Z,1.72
2018-07-02T18:15:34.829Z,1.85
2018-07-02T18:18:03.924Z,1.80
2018-07-02T18:20:33.043Z,1.40
2018-07-02T18:23:02.367Z,1.70
2018-07-02T18:25:31.572Z,1.50
2018-07-02T18:28:00.685Z,1.30
2018-07-02T18:30:29.853Z,1.37
2018-07-02T18:32:59.053Z,1.30
2018-07-02T18:35:28.198Z,1.27
2018-07-02T18:37:57.785Z,1.20
2018-07-02T18:40:26.980Z,1.20
2018-07-02T18:42:56.304Z,1.20
2018-07-02T18:45:25.434Z,1.10
2018-07-02T18:47:54.545Z,1.10
2018-07-02T18:50:23.761Z,1.10
2018-07-02T18:52:53.425Z,1.10
2018-07-02T18:55:22.642Z,1.30
2018-07-02T18:57:51.697Z,1.10
2018-07-02T19:00:20.879Z,1.02
2018-07-02T19:02:50.249Z,1.30
2018-07-02T19:05:19.392Z,1.00
2018-07-02T19:07:48.481Z,1.20
2018-07-02T19:10:17.625Z,1.22
2018-07-02T19:12:46.730Z,1.40
2018-07-02T19:15:16.077Z,1.60
2018-07-02T19:17:45.167Z,1.30
2018-07-02T19:20:15.160Z,1.30
2018-07-02T19:22:44.273Z,1.45
2018-07-02T19:25:13.433Z,1.65
2018-07-02T19:27:42.836Z,1.35
2018-07-02T19:30:11.956Z,1.30
2018-07-02T19:32:41.069Z,1.20
2018-07-02T19:35:10.164Z,1.40
2018-07-02T19:37:39.381Z,1.20
2018-07-02T19:40:08.592Z,1.50
2018-07-02T19:42:37.700Z,1.30
2018-07-02T19:45:07.042Z,1.12
2018-07-02T19:47:36.189Z,1.30
2018-07-02T19:50:05.601Z,1.20
2018-07-02T19:52:35.196Z,1.25
2018-07-02T19:55:06.038Z,1.30
2018-07-02T19:57:35.108Z,1.30
2018-07-02T20:00:05.101Z,1.20
2018-07-02T20:02:34.240Z,1.20
2018-07-02T20:05:03.338Z,1.10
2018-07-02T20:07:32.521Z,1.17
2018-07-02T20:10:01.604Z,1.40
2018-07-02T20:12:30.762Z,1.60
2018-07-02T20:15:00.116Z,1.12
2018-07-02T20:17:29.187Z,1.47
2018-07-02T20:19:58.309Z,1.12
2018-07-02T20:22:27.412Z,1.20
2018-07-02T20:24:56.517Z,1.10
2018-07-02T20:27:25.748Z,0.93
2018-07-02T20:29:54.920Z,1.10
2018-07-02T20:32:24.065Z,1.32
2018-07-02T20:34:53.269Z,1.30
2018-07-02T20:37:22.412Z,1.20
2018-07-02T20:39:51.549Z,1.30
2018-07-02T20:42:20.657Z,1.20
2018-07-02T20:44:50.104Z,0.93
2018-07-02T20:47:19.147Z,1.10
2018-07-02T20:49:48.276Z,1.10
2018-07-02T20:52:17.676Z,1.05
2018-07-02T20:54:46.764Z,1.02
2018-07-02T20:57:15.863Z,0.98
2018-07-02T20:59:44.992Z,1.00
2018-07-02T21:02:14.042Z,1.00
2018-07-02T21:04:43.339Z,1.10
2018-07-02T21:07:12.605Z,1.25
2018-07-02T21:09:41.723Z,1.17
2018-07-02T21:12:10.877Z,1.10
2018-07-02T21:14:39.949Z,1.00
2018-07-02T21:17:09.121Z,1.15
2018-07-02T21:19:38.248Z,1.07
2018-07-02T21:22:07.929Z,1.20
2018-07-02T21:24:37.061Z,1.20
2018-07-02T21:27:06.252Z,1.20
2018-07-02T21:29:35.760Z,1.37
2018-07-02T21:32:04.897Z,1.20
2018-07-02T21:34:34.028Z,1.50
2018-07-02T21:37:03.145Z,1.10
2018-07-02T21:39:32.250Z,1.02
2018-07-02T21:42:01.449Z,1.20
2018-07-02T21:44:30.857Z,1.30
2018-07-02T21:46:59.966Z,1.00
2018-07-02T21:49:29.100Z,1.32
2018-07-02T21:51:58.470Z,0.98
2018-07-02T21:54:27.656Z,1.30
2018-07-02T21:56:56.708Z,1.12
2018-07-02T21:59:26.081Z,1.15
2018-07-02T22:01:55.205Z,1.10
2018-07-02T22:04:24.302Z,1.30
2018-07-02T22:06:53.680Z,1.20
2018-07-02T22:09:22.836Z,1.30
2018-07-02T22:11:51.897Z,1.35
2018-07-02T22:14:21.344Z,1.37
2018-07-02T22:16:50.434Z,1.20
2018-07-02T22:19:19.603Z,1.10
2018-07-02T22:21:48.729Z,1.30
2018-07-02T22:24:17.808Z,1.47
2018-07-02T22:26:47.008Z,1.40
2018-07-02T22:29:16.385Z,1.50
2018-07-02T22:31:45.480Z,1.50
2018-07-02T22:34:14.780Z,1.50
2018-07-02T22:36:44.140Z,1.25
2018-07-02T22:39:13.264Z,1.30
2018-07-02T22:41:42.401Z,1.40
2018-07-02T22:44:11.797Z,1.60
2018-07-02T22:46:40.925Z,1.37
2018-07-02T22:49:10.052Z,1.45
2018-07-02T22:51:39.138Z,1.40
2018-07-02T22:54:08.236Z,1.50
2018-07-02T22:56:37.394Z,1.47
2018-07-02T22:59:06.636Z,1.50
2018-07-02T23:01:35.788Z,1.62
2018-07-02T23:04:05.039Z,1.87
2018-07-02T23:06:34.273Z,1.67
2018-07-02T23:09:04.476Z,1.60
2018-07-02T23:11:33.593Z,1.50
2018-07-02T23:14:02.949Z,1.40
2018-07-02T23:16:32.062Z,1.50
2018-07-02T23:19:01.157Z,1.40
2018-07-02T23:21:30.601Z,1.82
2018-07-02T23:24:01.469Z,1.35
2018-07-02T23:26:30.697Z,1.50
2018-07-02T23:28:59.807Z,1.80
2018-07-02T23:31:29.136Z,1.40
2018-07-02T23:33:58.284Z,1.70
2018-07-02T23:36:27.453Z,1.57
2018-07-02T23:38:56.592Z,1.45
2018-07-02T23:41:25.713Z,1.40
2018-07-02T23:43:54.817Z,1.60
2018-07-02T23:46:24.284Z,1.50
2018-07-02T23:48:53.627Z,1.30
2018-07-02T23:51:22.716Z,1.60
2018-07-02T23:53:51.821Z,1.50
2018-07-02T23:56:20.913Z,1.60
2018-07-02T23:58:49.997Z,1.35
